createdAt,value
2018-06-24T00:00:03.069Z,15.00
2018-06-24T00:02:31.738Z,14.98
2018-06-24T00:05:00.484Z,14.99
2018-06-24T00:07:29.389Z,15.00
2018-06-24T00:09:58.304Z,14.97
2018-06-24T00:12:27.238Z,14.91
2018-06-24T00:14:55.844Z,14.96
2018-06-24T00:17:24.531Z,14.95
2018-06-24T00:19:53.203Z,14.88
2018-06-24T00:22:22.078Z,14.79
2018-06-24T00:24:50.762Z,14.74
2018-06-24T00:27:19.322Z,14.59
2018-06-24T00:29:47.945Z,14.54
2018-06-24T00:32:16.613Z,14.36
2018-06-24T00:34:45.245Z,14.32
2018-06-24T00:37:13.980Z,14.39
2018-06-24T00:39:42.677Z,14.49
2018-06-24T00:42:11.492Z,14.55
2018-06-24T00:44:40.234Z,14.56
2018-06-24T00:47:09.011Z,14.49
2018-06-24T00:49:37.889Z,14.48
2018-06-24T00:52:06.576Z,14.44
2018-06-24T00:54:35.197Z,14.34
2018-06-24T00:57:03.740Z,14.38
2018-06-24T00:59:43.233Z,14.41
2018-06-24T01:02:11.848Z,14.37
2018-06-24T01:04:40.437Z,14.31
2018-06-24T01:07:09.016Z,14.35
2018-06-24T01:09:37.664Z,14.45
2018-06-24T01:12:06.412Z,14.25
2018-06-24T01:14:35.004Z,14.23
2018-06-24T01:17:03.640Z,14.35
2018-06-24T01:19:32.280Z,14.42
2018-06-24T01:22:00.965Z,14.25
2018-06-24T01:24:29.595Z,14.20
2018-06-24T01:26:58.313Z,14.16
2018-06-24T01:29:26.868Z,14.26
2018-06-24T01:31:55.448Z,14.37
2018-06-24T01:34:24.047Z,14.49
2018-06-24T01:36:52.709Z,14.53
2018-06-24T01:39:21.396Z,14.51
2018-06-24T01:41:50.099Z,14.48
2018-06-24T01:44:18.652Z,14.41
2018-06-24T01:46:47.321Z,14.35
2018-06-24T01:49:15.987Z,14.31
2018-06-24T01:51:44.717Z,14.39
2018-06-24T01:54:13.263Z,14.52
2018-06-24T01:56:41.898Z,14.56
2018-06-24T01:59:11.143Z,14.54
2018-06-24T02:01:49.572Z,14.58
2018-06-24T02:04:18.938Z,14.65
2018-06-24T02:06:47.856Z,14.74
2018-06-24T02:09:16.637Z,14.69
2018-06-24T02:11:45.327Z,14.67
2018-06-24T02:14:14.052Z,14.73
2018-06-24T02:16:42.854Z,14.76
2018-06-24T02:19:11.851Z,14.74
2018-06-24T02:21:41.783Z,14.75
2018-06-24T02:24:12.016Z,14.80
2018-06-24T02:26:50.185Z,14.78
2018-06-24T02:29:19.758Z,14.81
2018-06-24T02:31:50.633Z,14.85
2018-06-24T02:34:19.461Z,14.87
2018-06-24T02:36:48.870Z,14.84
2018-06-24T02:39:18.921Z,14.77
2018-06-24T02:41:48.389Z,14.79
2018-06-24T02:44:17.150Z,14.82
2018-06-24T02:46:46.441Z,14.78
2018-06-24T02:49:15.887Z,14.82
2018-06-24T02:51:45.136Z,14.75
2018-06-24T02:54:14.196Z,14.74
2018-06-24T02:56:43.218Z,14.52
2018-06-24T02:59:12.099Z,14.44
2018-06-24T03:01:41.086Z,14.40
2018-06-24T03:04:09.980Z,14.47
2018-06-24T03:06:38.968Z,14.38
2018-06-24T03:09:09.397Z,14.31
2018-06-24T03:11:38.125Z,14.22
2018-06-24T03:14:07.231Z,14.17
2018-06-24T03:16:36.418Z,14.14
2018-06-24T03:19:05.419Z,14.12
2018-06-24T03:21:34.247Z,14.12
2018-06-24T03:24:03.040Z,13.75
2018-06-24T03:26:32.291Z,13.58
2018-06-24T03:29:01.774Z,13.64
2018-06-24T03:31:30.856Z,13.58
2018-06-24T03:33:59.652Z,13.68
2018-06-24T03:36:28.392Z,13.78
2018-06-24T03:38:57.150Z,13.91
2018-06-24T03:41:26.495Z,13.98
2018-06-24T03:43:55.093Z,13.98
2018-06-24T03:46:23.937Z,14.07
2018-06-24T03:48:52.835Z,14.09
2018-06-24T03:51:21.696Z,14.17
2018-06-24T03:53:50.312Z,14.13
2018-06-24T03:56:19.268Z,14.07
2018-06-24T03:58:48.085Z,14.02
2018-06-24T04:01:16.933Z,14.02
2018-06-24T04:03:45.667Z,14.14
2018-06-24T04:06:14.430Z,14.03
2018-06-24T04:08:43.365Z,13.92
2018-06-24T04:11:12.085Z,13.85
2018-06-24T04:13:41.759Z,13.93
2018-06-24T04:16:10.508Z,13.98
2018-06-24T04:18:41.673Z,13.96
2018-06-24T04:21:11.664Z,13.79
2018-06-24T04:23:40.810Z,13.78
2018-06-24T04:26:10.496Z,13.87
2018-06-24T04:28:40.742Z,13.95
2018-06-24T04:31:10.896Z,14.04
2018-06-24T04:33:39.993Z,14.00
2018-06-24T04:36:08.676Z,14.07
2018-06-24T04:38:37.753Z,14.14
2018-06-24T04:41:06.605Z,14.18
2018-06-24T04:43:35.566Z,14.04
2018-06-24T04:46:04.415Z,14.01
2018-06-24T04:48:33.196Z,14.00
2018-06-24T04:51:01.883Z,14.03
2018-06-24T04:53:30.863Z,14.09
2018-06-24T04:55:59.469Z,14.08
2018-06-24T04:58:28.421Z,14.11
2018-06-24T05:00:57.167Z,14.16
2018-06-24T05:03:26.537Z,14.21
2018-06-24T05:05:55.417Z,14.14
2018-06-24T05:08:24.204Z,14.14
2018-06-24T05:10:53.238Z,14.15
2018-06-24T05:13:22.153Z,14.27
2018-06-24T05:15:51.154Z,14.30
2018-06-24T05:18:19.921Z,14.40
2018-06-24T05:20:49.175Z,14.34
2018-06-24T05:23:17.880Z,14.35
2018-06-24T05:25:46.756Z,14.36
2018-06-24T05:28:15.617Z,14.29
2018-06-24T05:30:45.498Z,14.31
2018-06-24T05:33:16.453Z,14.32
2018-06-24T05:35:46.996Z,14.45
2018-06-24T05:38:16.308Z,14.58
2018-06-24T05:40:45.803Z,14.56
2018-06-24T05:43:16.641Z,14.55
2018-06-24T05:45:45.906Z,14.77
2018-06-24T05:48:16.060Z,14.72
2018-06-24T05:50:50.078Z,14.77
2018-06-24T05:53:19.846Z,14.85
2018-06-24T05:55:48.973Z,14.84
2018-06-24T05:58:17.712Z,14.89
2018-06-24T06:00:47.154Z,14.90
2018-06-24T06:03:15.922Z,14.89
2018-06-24T06:05:44.749Z,14.74
2018-06-24T06:08:13.494Z,14.85
2018-06-24T06:10:42.481Z,14.94
2018-06-24T06:13:11.186Z,15.05
2018-06-24T06:15:41.340Z,15.10
2018-06-24T06:18:10.026Z,15.24
2018-06-24T06:20:39.468Z,15.35
2018-06-24T06:23:08.495Z,15.37
2018-06-24T06:25:37.373Z,15.35
2018-06-24T06:28:09.414Z,15.39
2018-06-24T06:30:38.167Z,15.45
2018-06-24T06:33:07.753Z,15.39
2018-06-24T06:35:36.653Z,15.31
2018-06-24T06:38:06.003Z,15.40
2018-06-24T06:40:35.192Z,15.45
2018-06-24T06:43:03.928Z,15.39
2018-06-24T06:45:33.228Z,15.51
2018-06-24T06:48:02.075Z,15.59
2018-06-24T06:50:37.591Z,15.76
2018-06-24T06:53:06.753Z,15.85
2018-06-24T06:55:35.509Z,15.98
2018-06-24T06:58:04.399Z,16.15
2018-06-24T07:00:33.195Z,16.06
2018-06-24T07:03:05.263Z,16.06
2018-06-24T07:05:33.975Z,16.24
2018-06-24T07:08:03.476Z,16.32
2018-06-24T07:10:32.216Z,16.52
2018-06-24T07:13:00.984Z,16.67
2018-06-24T07:15:29.892Z,16.78
2018-06-24T07:17:58.772Z,16.90
2018-06-24T07:20:27.822Z,16.98
2018-06-24T07:23:00.116Z,17.07
2018-06-24T07:25:28.935Z,17.06
2018-06-24T07:27:57.658Z,17.06
2018-06-24T07:30:26.302Z,17.14
2018-06-24T07:33:01.933Z,17.14
2018-06-24T07:35:31.287Z,17.15
2018-06-24T07:38:00.531Z,17.04
2018-06-24T07:40:29.580Z,16.98
2018-06-24T07:42:59.054Z,16.84
2018-06-24T07:45:28.448Z,16.79
2018-06-24T07:47:57.163Z,16.80
2018-06-24T07:50:25.979Z,16.85
2018-06-24T07:52:55.064Z,16.85
2018-06-24T07:55:23.897Z,16.93
2018-06-24T07:57:52.697Z,16.86
2018-06-24T08:00:21.696Z,16.80
2018-06-24T08:02:50.699Z,16.87
2018-06-24T08:05:22.130Z,16.72
2018-06-24T08:07:50.997Z,16.76
2018-06-24T08:10:20.019Z,16.75
2018-06-24T08:12:52.213Z,16.75
2018-06-24T08:15:21.065Z,16.82
2018-06-24T08:17:50.102Z,16.82
2018-06-24T08:20:21.677Z,16.86
2018-06-24T08:22:53.697Z,16.97
2018-06-24T08:25:22.662Z,17.01
2018-06-24T08:27:51.529Z,17.07
2018-06-24T08:30:20.252Z,17.19
2018-06-24T08:32:48.971Z,17.24
2018-06-24T08:35:17.731Z,17.28
2018-06-24T08:37:47.313Z,17.24
2018-06-24T08:40:16.002Z,17.36
2018-06-24T08:42:45.528Z,17.39
2018-06-24T08:45:14.320Z,17.23
2018-06-24T08:47:42.954Z,17.37
2018-06-24T08:50:11.932Z,17.33
2018-06-24T08:52:40.906Z,17.49
2018-06-24T08:55:12.922Z,17.51
2018-06-24T08:57:41.733Z,17.48
2018-06-24T09:00:10.528Z,17.60
2018-06-24T09:02:39.304Z,17.78
2018-06-24T09:05:08.130Z,17.84
2018-06-24T09:07:37.282Z,17.87
2018-06-24T09:10:08.254Z,17.92
2018-06-24T09:12:37.187Z,17.61
2018-06-24T09:15:06.022Z,17.84
2018-06-24T09:17:35.065Z,17.89
2018-06-24T09:20:05.455Z,17.63
2018-06-24T09:22:34.100Z,17.90
2018-06-24T09:25:09.887Z,17.66
2018-06-24T09:27:38.738Z,17.75
2018-06-24T09:30:09.948Z,17.72
2018-06-24T09:32:38.613Z,17.83
2018-06-24T09:35:07.329Z,17.85
2018-06-24T09:37:36.114Z,17.69
2018-06-24T09:40:05.081Z,17.57
2018-06-24T09:42:33.913Z,17.66
2018-06-24T09:45:02.750Z,17.70
2018-06-24T09:47:32.030Z,17.79
2018-06-24T09:50:00.798Z,18.02
2018-06-24T09:52:33.900Z,18.25
2018-06-24T09:55:03.027Z,18.57
2018-06-24T09:57:31.623Z,18.51
2018-06-24T10:00:00.374Z,18.73
2018-06-24T10:02:29.005Z,18.64
2018-06-24T10:04:57.656Z,18.67
2018-06-24T10:07:26.333Z,18.86
2018-06-24T10:09:55.198Z,18.86
2018-06-24T10:12:24.067Z,18.48
2018-06-24T10:14:52.885Z,18.76
2018-06-24T10:17:22.866Z,19.33
2018-06-24T10:19:52.548Z,19.39
2018-06-24T10:22:22.128Z,19.42
2018-06-24T10:24:53.790Z,19.64
2018-06-24T10:27:25.110Z,19.98
2018-06-24T10:29:54.041Z,19.83
2018-06-24T10:32:22.809Z,19.35
2018-06-24T10:34:51.754Z,19.37
2018-06-24T10:37:21.863Z,19.67
2018-06-24T10:39:53.006Z,19.78
2018-06-24T10:42:21.695Z,20.06
2018-06-24T10:44:51.417Z,20.33
2018-06-24T10:47:19.923Z,20.29
2018-06-24T10:49:49.940Z,20.44
2018-06-24T10:52:18.537Z,20.04
2018-06-24T10:54:48.334Z,19.81
2018-06-24T10:57:17.142Z,19.44
2018-06-24T10:59:45.856Z,19.01
2018-06-24T11:02:14.570Z,18.92
2018-06-24T11:04:49.616Z,19.11
2018-06-24T11:07:23.193Z,19.37
2018-06-24T11:09:59.747Z,20.00
2018-06-24T11:12:29.508Z,20.32
2018-06-24T11:14:58.579Z,20.40
2018-06-24T11:17:27.204Z,20.58
2018-06-24T11:19:55.945Z,21.20
2018-06-24T11:22:25.736Z,20.86
2018-06-24T11:24:55.815Z,20.63
2018-06-24T11:27:28.641Z,20.55
2018-06-24T11:29:57.681Z,20.31
2018-06-24T11:32:26.346Z,20.41
2018-06-24T11:34:55.100Z,20.25
2018-06-24T11:37:23.767Z,20.69
2018-06-24T11:39:52.390Z,20.76
2018-06-24T11:42:21.053Z,20.49
2018-06-24T11:44:49.736Z,20.73
2018-06-24T11:47:18.433Z,20.44
2018-06-24T11:49:47.109Z,20.36
2018-06-24T11:52:15.986Z,20.46
2018-06-24T11:54:44.564Z,20.57
2018-06-24T11:57:13.169Z,20.63
2018-06-24T11:59:41.807Z,20.79
2018-06-24T12:02:10.509Z,20.41
2018-06-24T12:04:39.105Z,20.33
2018-06-24T12:07:07.720Z,20.43
2018-06-24T12:09:36.374Z,20.42
2018-06-24T12:12:05.043Z,20.61
2018-06-24T12:14:33.730Z,20.43
2018-06-24T12:17:02.355Z,20.53
2018-06-24T12:19:30.989Z,20.74
2018-06-24T12:21:59.908Z,20.83
2018-06-24T12:24:28.548Z,20.99
2018-06-24T12:26:57.213Z,20.79
2018-06-24T12:29:25.961Z,20.61
2018-06-24T12:31:54.715Z,20.32
2018-06-24T12:34:23.406Z,20.09
2018-06-24T12:36:53.254Z,20.04
2018-06-24T12:39:22.045Z,20.13
2018-06-24T12:41:50.919Z,20.36
2018-06-24T12:44:20.434Z,20.41
2018-06-24T12:46:49.273Z,20.52
2018-06-24T12:49:17.917Z,20.72
2018-06-24T12:51:46.612Z,20.79
2018-06-24T12:54:15.268Z,20.83
2018-06-24T12:56:44.020Z,20.60
2018-06-24T12:59:12.953Z,20.60
2018-06-24T13:01:41.435Z,20.50
2018-06-24T13:04:10.159Z,20.52
2018-06-24T13:06:38.863Z,20.28
2018-06-24T13:09:09.306Z,20.46
2018-06-24T13:11:38.292Z,20.38
2018-06-24T13:14:07.087Z,20.48
2018-06-24T13:16:35.785Z,20.07
2018-06-24T13:19:04.642Z,20.11
2018-06-24T13:21:33.273Z,20.24
2018-06-24T13:24:01.868Z,20.55
2018-06-24T13:26:30.639Z,20.80
2018-06-24T13:28:59.380Z,20.38
2018-06-24T13:31:28.021Z,20.36
2018-06-24T13:33:56.912Z,20.15
2018-06-24T13:36:25.762Z,20.39
2018-06-24T13:38:54.432Z,20.24
2018-06-24T13:41:23.149Z,20.50
2018-06-24T13:43:51.910Z,20.46
2018-06-24T13:46:20.505Z,20.48
2018-06-24T13:48:49.235Z,20.35
2018-06-24T13:51:17.978Z,20.57
2018-06-24T13:53:46.923Z,20.15
2018-06-24T13:56:15.584Z,19.94
2018-06-24T13:58:44.185Z,20.12
2018-06-24T14:01:12.957Z,20.00
2018-06-24T14:03:41.689Z,19.98
2018-06-24T14:06:10.521Z,19.97
2018-06-24T14:08:39.284Z,19.93
2018-06-24T14:11:07.925Z,19.93
2018-06-24T14:13:36.765Z,19.79
2018-06-24T14:16:05.649Z,19.77
2018-06-24T14:18:34.675Z,19.74
2018-06-24T14:21:03.303Z,19.79
2018-06-24T14:23:32.121Z,19.82
2018-06-24T14:26:00.632Z,19.75
2018-06-24T14:28:29.237Z,19.85
2018-06-24T14:30:58.101Z,19.83
2018-06-24T14:33:26.825Z,19.74
2018-06-24T14:35:55.770Z,19.77
2018-06-24T14:38:24.429Z,19.82
2018-06-24T14:40:53.309Z,19.72
2018-06-24T14:43:21.888Z,19.69
2018-06-24T14:45:50.886Z,19.72
2018-06-24T14:48:19.582Z,19.60
2018-06-24T14:50:48.243Z,19.53
2018-06-24T14:53:16.984Z,19.53
2018-06-24T14:55:45.628Z,19.81
2018-06-24T14:58:14.277Z,19.82
2018-06-24T15:00:43.141Z,19.78
2018-06-24T15:03:11.781Z,19.84
2018-06-24T15:05:40.464Z,19.68
2018-06-24T15:08:09.153Z,19.55
2018-06-24T15:10:38.102Z,19.49
2018-06-24T15:13:06.769Z,19.53
2018-06-24T15:15:35.807Z,19.53
2018-06-24T15:18:04.695Z,19.54
2018-06-24T15:20:33.846Z,19.32
2018-06-24T15:23:02.614Z,19.46
2018-06-24T15:25:31.335Z,19.52
2018-06-24T15:28:00.358Z,19.62
2018-06-24T15:30:29.143Z,19.52
2018-06-24T15:32:57.913Z,19.58
2018-06-24T15:35:26.991Z,19.44
2018-06-24T15:37:56.175Z,19.43
2018-06-24T15:40:24.908Z,19.38
2018-06-24T15:42:53.856Z,19.27
2018-06-24T15:45:22.639Z,19.29
2018-06-24T15:47:51.287Z,19.41
2018-06-24T15:50:19.984Z,19.32
2018-06-24T15:52:48.648Z,19.46
2018-06-24T15:55:17.369Z,19.35
2018-06-24T15:57:46.028Z,19.31
2018-06-24T16:00:15.364Z,19.00
2018-06-24T16:02:44.271Z,19.09
2018-06-24T16:05:13.222Z,18.89
2018-06-24T16:07:42.184Z,18.82
2018-06-24T16:10:11.133Z,18.73
2018-06-24T16:12:39.710Z,18.74
2018-06-24T16:15:08.440Z,18.75
2018-06-24T16:17:37.253Z,18.89
2018-06-24T16:20:06.180Z,19.06
2018-06-24T16:22:34.783Z,19.51
2018-06-24T16:25:03.704Z,19.44
2018-06-24T16:27:32.519Z,19.55
2018-06-24T16:30:01.181Z,19.59
2018-06-24T16:32:29.977Z,19.59
2018-06-24T16:34:58.780Z,19.39
2018-06-24T16:37:27.580Z,19.18
2018-06-24T16:39:56.231Z,18.86
2018-06-24T16:42:25.003Z,18.66
2018-06-24T16:44:53.611Z,18.68
2018-06-24T16:47:22.357Z,18.63
2018-06-24T16:49:51.113Z,18.67
2018-06-24T16:52:19.772Z,18.53
2018-06-24T16:54:48.397Z,18.54
2018-06-24T16:57:17.173Z,18.53
2018-06-24T16:59:45.786Z,18.43
2018-06-24T17:02:14.497Z,18.41
2018-06-24T17:04:43.312Z,18.32
2018-06-24T17:07:11.942Z,18.21
2018-06-24T17:09:40.826Z,18.22
2018-06-24T17:12:09.430Z,18.24
2018-06-24T17:14:38.081Z,18.27
2018-06-24T17:17:06.730Z,18.33
2018-06-24T17:19:35.324Z,18.42
2018-06-24T17:22:04.000Z,18.25
2018-06-24T17:24:32.917Z,18.24
2018-06-24T17:27:01.615Z,18.36
2018-06-24T17:29:30.822Z,18.37
2018-06-24T17:31:59.365Z,18.36
2018-06-24T17:34:28.040Z,18.29
2018-06-24T17:36:56.773Z,18.33
2018-06-24T17:39:25.468Z,18.32
2018-06-24T17:41:54.065Z,18.29
2018-06-24T17:44:22.845Z,18.25
2018-06-24T17:46:51.710Z,18.28
2018-06-24T17:49:20.410Z,18.36
2018-06-24T17:51:49.088Z,18.38
2018-06-24T17:54:17.857Z,18.33
2018-06-24T17:56:46.493Z,18.29
2018-06-24T17:59:15.196Z,18.23
2018-06-24T18:01:44.004Z,18.20
2018-06-24T18:04:12.726Z,18.03
2018-06-24T18:06:41.365Z,17.99
2018-06-24T18:09:11.596Z,18.00
2018-06-24T18:11:40.403Z,17.98
2018-06-24T18:14:09.502Z,17.99
2018-06-24T18:16:38.247Z,17.93
2018-06-24T18:19:07.008Z,17.77
2018-06-24T18:21:35.656Z,17.81
2018-06-24T18:24:04.436Z,17.85
2018-06-24T18:26:34.829Z,17.74
2018-06-24T18:29:03.688Z,17.80
2018-06-24T18:31:32.453Z,17.77
2018-06-24T18:34:01.246Z,17.72
2018-06-24T18:36:29.993Z,17.70
2018-06-24T18:38:58.712Z,17.71
2018-06-24T18:41:27.359Z,17.69
2018-06-24T18:43:56.010Z,17.60
2018-06-24T18:46:24.700Z,17.53
2018-06-24T18:48:53.380Z,17.64
2018-06-24T18:51:22.062Z,17.50
2018-06-24T18:53:50.628Z,17.43
2018-06-24T18:56:19.536Z,17.43
2018-06-24T18:58:48.455Z,17.59
2018-06-24T19:01:17.272Z,17.69
2018-06-24T19:03:46.001Z,17.76
2018-06-24T19:06:14.892Z,17.64
2018-06-24T19:08:43.774Z,17.66
2018-06-24T19:11:12.482Z,17.63
2018-06-24T19:13:41.537Z,17.53
2018-06-24T19:16:10.274Z,17.63
2018-06-24T19:18:38.897Z,17.65
2018-06-24T19:21:07.533Z,17.51
2018-06-24T19:23:36.129Z,17.51
2018-06-24T19:26:05.043Z,17.51
2018-06-24T19:28:33.746Z,17.41
2018-06-24T19:31:02.665Z,17.51
2018-06-24T19:33:31.319Z,17.59
2018-06-24T19:35:59.996Z,17.51
2018-06-24T19:38:28.749Z,17.44
2018-06-24T19:40:57.433Z,17.43
2018-06-24T19:43:26.871Z,17.35
2018-06-24T19:45:55.499Z,17.36
2018-06-24T19:48:24.197Z,17.40
2018-06-24T19:50:52.784Z,17.42
2018-06-24T19:53:21.401Z,17.41
2018-06-24T19:55:49.984Z,17.42
2018-06-24T19:58:18.615Z,17.34
2018-06-24T20:00:47.281Z,17.34
2018-06-24T20:03:15.987Z,17.29
2018-06-24T20:05:44.687Z,17.19
2018-06-24T20:08:13.500Z,17.21
2018-06-24T20:10:42.133Z,17.23
2018-06-24T20:13:10.834Z,17.27
2018-06-24T20:15:39.763Z,17.34
2018-06-24T20:18:08.507Z,17.39
2018-06-24T20:20:37.297Z,17.29
2018-06-24T20:23:06.139Z,17.24
2018-06-24T20:25:34.914Z,17.28
2018-06-24T20:28:03.558Z,17.25
2018-06-24T20:30:32.735Z,17.04
2018-06-24T20:33:01.666Z,17.04
2018-06-24T20:35:30.367Z,17.09
2018-06-24T20:37:58.867Z,16.97
2018-06-24T20:40:27.594Z,16.97
2018-06-24T20:42:56.179Z,16.82
2018-06-24T20:45:24.841Z,16.73
2018-06-24T20:47:53.517Z,16.71
2018-06-24T20:50:22.327Z,16.69
2018-06-24T20:52:50.986Z,16.65
2018-06-24T20:55:19.684Z,16.48
2018-06-24T20:57:48.402Z,16.36
2018-06-24T21:00:17.237Z,16.29
2018-06-24T21:02:45.949Z,16.16
2018-06-24T21:05:14.626Z,16.10
2018-06-24T21:07:43.311Z,15.99
2018-06-24T21:10:11.960Z,15.89
2018-06-24T21:12:40.576Z,15.90
2018-06-24T21:15:09.276Z,15.79
2018-06-24T21:17:37.918Z,15.82
2018-06-24T21:20:06.583Z,15.88
2018-06-24T21:22:35.452Z,15.74
2018-06-24T21:25:04.209Z,15.68
2018-06-24T21:27:32.872Z,15.64
2018-06-24T21:30:01.584Z,15.72
2018-06-24T21:32:30.244Z,15.75
2018-06-24T21:34:58.842Z,15.81
2018-06-24T21:37:27.468Z,15.76
2018-06-24T21:39:56.057Z,15.72
2018-06-24T21:42:24.728Z,15.78
2018-06-24T21:44:53.379Z,15.76
2018-06-24T21:47:22.321Z,15.75
2018-06-24T21:49:50.890Z,15.79
2018-06-24T21:52:19.517Z,15.67
2018-06-24T21:54:48.161Z,15.68
2018-06-24T21:57:16.943Z,15.69
2018-06-24T21:59:45.607Z,15.71
2018-06-24T22:02:14.229Z,15.65
2018-06-24T22:04:42.832Z,15.70
2018-06-24T22:07:11.451Z,15.68
2018-06-24T22:09:40.045Z,15.69
2018-06-24T22:12:09.046Z,15.63
2018-06-24T22:14:37.685Z,15.54
2018-06-24T22:17:06.471Z,15.50
2018-06-24T22:19:35.148Z,15.48
2018-06-24T22:22:03.695Z,15.51
2018-06-24T22:24:32.381Z,15.41
2018-06-24T22:27:01.154Z,15.58
2018-06-24T22:29:29.717Z,15.55
2018-06-24T22:31:58.333Z,15.47
2018-06-24T22:34:27.151Z,15.47
2018-06-24T22:36:55.764Z,15.47
2018-06-24T22:39:24.580Z,15.43
2018-06-24T22:41:53.180Z,15.39
2018-06-24T22:44:21.800Z,15.39
2018-06-24T22:46:50.342Z,15.39
2018-06-24T22:49:19.044Z,15.39
2018-06-24T22:51:47.710Z,15.37
2018-06-24T22:54:16.399Z,15.39
2018-06-24T22:56:45.233Z,15.40
2018-06-24T22:59:24.997Z,15.52
2018-06-24T23:01:53.868Z,15.52
2018-06-24T23:04:22.608Z,15.49
2018-06-24T23:06:51.328Z,15.47
2018-06-24T23:09:20.237Z,15.58
2018-06-24T23:11:48.996Z,15.55
2018-06-24T23:14:17.620Z,15.53
2018-06-24T23:16:46.240Z,15.48
2018-06-24T23:19:15.138Z,15.59
2018-06-24T23:21:44.049Z,15.50
2018-06-24T23:24:14.795Z,15.51
2018-06-24T23:26:44.230Z,15.45
2018-06-24T23:29:22.649Z,15.38
2018-06-24T23:31:51.440Z,15.39
2018-06-24T23:34:22.841Z,15.34
2018-06-24T23:36:51.967Z,15.34
2018-06-24T23:39:20.876Z,15.27
2018-06-24T23:41:50.148Z,15.26
2018-06-24T23:44:21.604Z,15.30
2018-06-24T23:46:50.630Z,15.26
2018-06-24T23:49:20.832Z,15.27
2018-06-24T23:51:55.401Z,15.25
2018-06-24T23:54:24.957Z,15.29
2018-06-24T23:57:18.817Z,15.22
2018-06-24T23:59:49.659Z,15.24
